createdAt,value
2022-08-19T00:02:17.330Z,100.00
2022-08-19T00:04:48.856Z,100.00
2022-08-19T00:07:16.286Z,100.00
2022-08-19T00:09:43.673Z,100.00
2022-08-19T00:12:11.189Z,100.00
2022-08-19T00:14:39.078Z,100.00
2022-08-19T00:17:07.597Z,100.00
2022-08-19T00:19:35.383Z,100.00
2022-08-19T00:22:04.670Z,100.00
2022-08-19T00:24:32.044Z,100.00
2022-08-19T00:27:25.143Z,100.00
2022-08-19T00:29:47.308Z,100.00
2022-08-19T00:32:20.402Z,100.00
2022-08-19T00:34:48.049Z,100.00
2022-08-19T00:37:16.865Z,100.00
2022-08-19T00:39:44.359Z,100.00
2022-08-19T00:42:11.813Z,100.00
2022-08-19T00:44:39.385Z,100.00
2022-08-19T00:47:07.538Z,100.00
2022-08-19T00:49:43.648Z,100.00
2022-08-19T00:52:13.888Z,100.00
2022-08-19T00:54:43.440Z,100.00
2022-08-19T00:57:13.648Z,100.00
2022-08-19T01:00:01.048Z,100.00
2022-08-19T01:02:29.680Z,100.00
2022-08-19T01:04:57.348Z,100.00
2022-08-19T01:07:25.006Z,100.00
2022-08-19T01:09:54.252Z,100.00
2022-08-19T01:12:22.518Z,100.00
2022-08-19T01:14:51.061Z,100.00
2022-08-19T01:17:18.903Z,100.00
2022-08-19T01:19:47.860Z,100.00
2022-08-19T01:22:21.618Z,100.00
2022-08-19T01:24:55.432Z,100.00
2022-08-19T01:27:24.347Z,100.00
2022-08-19T01:29:52.236Z,100.00
2022-08-19T01:32:32.238Z,100.00
2022-08-19T01:35:02.941Z,100.00
2022-08-19T01:37:31.219Z,100.00
2022-08-19T01:40:00.088Z,100.00
2022-08-19T01:42:30.167Z,100.00
2022-08-19T01:44:58.143Z,100.00
2022-08-19T01:47:25.784Z,100.00
2022-08-19T01:49:53.261Z,100.00
2022-08-19T01:52:20.711Z,100.00
2022-08-19T01:54:48.167Z,100.00
2022-08-19T01:57:17.491Z,100.00
2022-08-19T01:59:46.658Z,100.00
2022-08-19T02:02:14.716Z,100.00
2022-08-19T02:04:42.227Z,100.00
2022-08-19T02:07:09.890Z,100.00
2022-08-19T02:09:37.717Z,100.00
2022-08-19T02:12:05.182Z,100.00
2022-08-19T02:14:35.587Z,100.00
2022-08-19T02:17:03.246Z,100.00
2022-08-19T02:19:33.292Z,100.00
2022-08-19T02:22:00.818Z,100.00
2022-08-19T02:24:28.522Z,100.00
2022-08-19T02:26:56.138Z,100.00
2022-08-19T02:29:23.573Z,100.00
2022-08-19T02:31:52.566Z,100.00
2022-08-19T02:34:19.995Z,100.00
2022-08-19T02:36:51.723Z,100.00
2022-08-19T02:39:18.516Z,100.00
2022-08-19T02:41:46.277Z,100.00
2022-08-19T02:44:29.688Z,100.00
2022-08-19T02:46:59.491Z,100.00
2022-08-19T02:49:26.893Z,100.00
2022-08-19T02:51:55.301Z,100.00
2022-08-19T02:54:22.765Z,100.00
2022-08-19T02:56:50.244Z,100.00
2022-08-19T02:59:17.720Z,100.00
2022-08-19T03:01:50.292Z,100.00
2022-08-19T03:04:20.146Z,100.00
2022-08-19T03:06:48.365Z,100.00
2022-08-19T03:09:16.239Z,100.00
2022-08-19T03:11:43.642Z,100.00
2022-08-19T03:14:11.450Z,100.00
2022-08-19T03:16:43.112Z,100.00
2022-08-19T03:19:10.510Z,100.00
2022-08-19T03:21:39.265Z,100.00
2022-08-19T03:24:07.899Z,100.00
2022-08-19T03:26:36.065Z,100.00
2022-08-19T03:29:04.919Z,100.00
2022-08-19T03:31:43.584Z,100.00
2022-08-19T03:34:13.841Z,100.00
2022-08-19T03:36:42.935Z,100.00
2022-08-19T03:39:11.609Z,100.00
2022-08-19T03:41:44.926Z,100.00
2022-08-19T03:44:18.049Z,100.00
2022-08-19T03:46:46.925Z,100.00
2022-08-19T03:49:14.740Z,100.00
2022-08-19T03:51:44.441Z,100.00
2022-08-19T03:54:13.037Z,100.00
2022-08-19T03:56:41.769Z,100.00
2022-08-19T03:59:10.502Z,100.00
2022-08-19T04:01:38.214Z,100.00
2022-08-19T04:04:05.941Z,100.00
2022-08-19T04:06:39.726Z,100.00
2022-08-19T04:09:09.505Z,100.00
2022-08-19T04:11:43.706Z,100.00
2022-08-19T04:14:12.471Z,100.00
2022-08-19T04:16:39.930Z,100.00
2022-08-19T04:19:07.646Z,100.00
2022-08-19T04:21:35.485Z,100.00
2022-08-19T04:24:03.793Z,100.00
2022-08-19T04:26:34.840Z,100.00
2022-08-19T04:29:03.068Z,100.00
2022-08-19T04:31:31.807Z,100.00
2022-08-19T04:34:01.304Z,100.00
2022-08-19T04:36:30.411Z,100.00
2022-08-19T04:38:58.429Z,100.00
2022-08-19T04:41:43.693Z,100.00
2022-08-19T04:44:13.095Z,100.00
2022-08-19T04:46:51.671Z,100.00
2022-08-19T04:49:20.102Z,100.00
2022-08-19T04:51:49.225Z,100.00
2022-08-19T04:54:33.773Z,100.00
2022-08-19T04:57:06.972Z,100.00
2022-08-19T04:59:35.766Z,100.00
2022-08-19T05:02:03.306Z,100.00
2022-08-19T05:04:33.201Z,100.00
2022-08-19T05:07:01.631Z,100.00
2022-08-19T05:09:32.878Z,100.00
2022-08-19T05:12:17.932Z,100.00
2022-08-19T05:14:50.301Z,100.00
2022-08-19T05:17:27.659Z,100.00
2022-08-19T05:20:13.377Z,100.00
2022-08-19T05:22:40.853Z,100.00
2022-08-19T05:25:12.927Z,100.00
2022-08-19T05:27:41.501Z,100.00
2022-08-19T05:30:11.480Z,100.00
2022-08-19T05:32:38.945Z,100.00
2022-08-19T05:35:06.701Z,100.00
2022-08-19T05:37:34.505Z,100.00
2022-08-19T05:40:02.357Z,100.00
2022-08-19T05:42:31.476Z,100.00
2022-08-19T05:44:58.966Z,100.00
2022-08-19T05:47:28.407Z,100.00
2022-08-19T05:49:55.944Z,100.00
2022-08-19T05:52:25.839Z,100.00
2022-08-19T05:54:56.045Z,100.00
2022-08-19T05:57:23.945Z,100.00
2022-08-19T05:59:52.835Z,100.00
2022-08-19T06:02:25.834Z,100.00
2022-08-19T06:04:54.771Z,100.00
2022-08-19T06:07:22.273Z,100.00
2022-08-19T06:09:58.855Z,100.00
2022-08-19T06:12:31.485Z,100.00
2022-08-19T06:15:01.261Z,100.00
2022-08-19T06:17:31.065Z,100.00
2022-08-19T06:20:00.659Z,100.00
2022-08-19T06:22:28.764Z,100.00
2022-08-19T06:24:56.332Z,100.00
2022-08-19T06:27:23.768Z,100.00
2022-08-19T06:29:51.252Z,100.00
2022-08-19T06:32:19.782Z,100.00
2022-08-19T06:34:47.601Z,100.00
2022-08-19T06:37:16.730Z,100.00
2022-08-19T06:39:45.299Z,100.00
2022-08-19T06:42:17.405Z,100.00
2022-08-19T06:44:48.853Z,100.00
2022-08-19T06:47:24.008Z,100.00
2022-08-19T06:50:00.940Z,100.00
2022-08-19T06:52:30.420Z,100.00
2022-08-19T06:54:59.586Z,100.00
2022-08-19T06:57:28.225Z,100.00
2022-08-19T06:59:57.448Z,100.00
2022-08-19T07:02:27.198Z,100.00
2022-08-19T07:04:54.667Z,100.00
2022-08-19T07:07:23.185Z,100.00
2022-08-19T07:09:59.355Z,100.00
2022-08-19T07:12:29.661Z,100.00
2022-08-19T07:14:59.312Z,100.00
2022-08-19T07:17:27.215Z,100.00
2022-08-19T07:19:56.079Z,100.00
2022-08-19T07:22:24.671Z,100.00
2022-08-19T07:24:53.566Z,100.00
2022-08-19T07:27:24.819Z,100.00
2022-08-19T07:29:55.661Z,100.00
2022-08-19T07:32:26.863Z,100.00
2022-08-19T07:34:54.652Z,100.00
2022-08-19T07:37:22.456Z,100.00
2022-08-19T07:39:50.061Z,100.00
2022-08-19T07:42:18.945Z,100.00
2022-08-19T07:44:49.946Z,100.00
2022-08-19T07:47:47.415Z,100.00
2022-08-19T07:50:08.009Z,100.00
2022-08-19T07:52:35.623Z,100.00
2022-08-19T07:55:04.737Z,100.00
2022-08-19T07:57:33.616Z,100.00
2022-08-19T08:00:01.132Z,100.00
2022-08-19T08:02:28.663Z,100.00
2022-08-19T08:05:13.565Z,100.00
2022-08-19T08:07:58.490Z,100.00
2022-08-19T08:10:26.054Z,100.00
2022-08-19T08:13:08.785Z,100.00
2022-08-19T08:15:42.560Z,100.00
2022-08-19T08:18:11.070Z,100.00
2022-08-19T08:20:38.701Z,100.00
2022-08-19T08:23:26.322Z,100.00
2022-08-19T08:25:55.539Z,100.00
2022-08-19T08:28:24.563Z,100.00
2022-08-19T08:30:53.806Z,100.00
2022-08-19T08:33:32.885Z,100.00
2022-08-19T08:36:02.037Z,100.00
2022-08-19T08:38:38.362Z,100.00
2022-08-19T08:41:10.574Z,100.00
2022-08-19T08:43:40.047Z,100.00
2022-08-19T08:46:12.125Z,100.00
2022-08-19T08:48:42.619Z,100.00
2022-08-19T08:51:13.351Z,100.00
2022-08-19T08:53:42.190Z,100.00
2022-08-19T08:56:13.349Z,100.00
2022-08-19T08:58:54.461Z,100.00
2022-08-19T09:01:23.327Z,100.00
2022-08-19T09:03:50.878Z,100.00
2022-08-19T09:06:25.871Z,100.00
2022-08-19T09:08:58.464Z,100.00
2022-08-19T09:11:42.992Z,100.00
2022-08-19T09:14:40.601Z,100.00
2022-08-19T09:17:09.063Z,100.00
2022-08-19T09:19:37.216Z,100.00
2022-08-19T09:22:06.186Z,100.00
2022-08-19T09:24:33.638Z,100.00
2022-08-19T09:27:03.582Z,100.00
2022-08-19T09:29:34.468Z,99.45
2022-08-19T09:32:01.922Z,97.03
2022-08-19T09:34:30.333Z,98.50
2022-08-19T09:37:06.185Z,99.63
2022-08-19T09:39:36.138Z,100.00
2022-08-19T09:42:04.422Z,100.00
2022-08-19T09:44:31.874Z,100.00
2022-08-19T09:47:01.211Z,100.00
2022-08-19T09:49:28.748Z,100.00
2022-08-19T09:51:57.030Z,100.00
2022-08-19T09:54:25.298Z,100.00
2022-08-19T09:56:53.186Z,99.50
2022-08-19T09:59:20.655Z,97.73
2022-08-19T10:01:48.310Z,95.54
2022-08-19T10:04:20.542Z,96.08
2022-08-19T10:06:53.457Z,96.25
2022-08-19T10:09:33.759Z,94.20
2022-08-19T10:12:02.697Z,91.34
2022-08-19T10:14:30.837Z,91.91
2022-08-19T10:16:59.116Z,92.70
2022-08-19T10:19:29.228Z,92.38
2022-08-19T10:22:00.450Z,92.35
2022-08-19T10:24:28.762Z,90.88
2022-08-19T10:26:57.286Z,89.40
2022-08-19T10:29:33.139Z,88.55
2022-08-19T10:32:01.965Z,86.24
2022-08-19T10:34:32.586Z,83.91
2022-08-19T10:37:01.730Z,85.61
2022-08-19T10:39:30.943Z,86.88
2022-08-19T10:41:59.111Z,88.68
2022-08-19T10:44:32.278Z,88.11
2022-08-19T10:47:00.947Z,86.34
2022-08-19T10:49:28.586Z,83.85
2022-08-19T10:52:18.807Z,86.78
2022-08-19T10:55:08.318Z,87.59
2022-08-19T10:57:59.488Z,87.79
2022-08-19T11:00:24.622Z,87.08
2022-08-19T11:02:52.059Z,87.60
2022-08-19T11:05:19.737Z,86.15
2022-08-19T11:07:51.223Z,85.66
2022-08-19T11:13:14.887Z,80.12
2022-08-19T11:15:42.299Z,80.83
2022-08-19T11:18:13.238Z,78.16
2022-08-19T11:20:40.941Z,79.03
2022-08-19T11:23:09.874Z,80.19
2022-08-19T11:25:40.083Z,80.70
2022-08-19T11:28:07.487Z,81.63
2022-08-19T11:30:35.137Z,79.67
2022-08-19T11:33:03.412Z,80.07
2022-08-19T11:35:30.857Z,81.66
2022-08-19T11:38:02.271Z,83.08
2022-08-19T11:40:31.073Z,85.08
2022-08-19T11:42:58.486Z,85.56
2022-08-19T11:45:26.539Z,87.51
2022-08-19T11:47:54.191Z,87.34
2022-08-19T11:50:21.974Z,92.16
2022-08-19T11:52:50.559Z,96.39
2022-08-19T11:55:18.062Z,97.20
2022-08-19T11:57:47.684Z,98.80
2022-08-19T12:00:15.653Z,100.00
2022-08-19T12:02:43.325Z,100.00
2022-08-19T12:05:12.795Z,100.00
2022-08-19T12:07:41.762Z,99.29
2022-08-19T12:10:10.700Z,99.49
2022-08-19T12:12:41.371Z,96.85
2022-08-19T12:15:12.006Z,99.58
2022-08-19T12:17:39.881Z,98.79
2022-08-19T12:20:09.329Z,97.95
2022-08-19T12:22:36.923Z,95.70
2022-08-19T12:25:04.824Z,95.14
2022-08-19T12:27:40.698Z,95.95
2022-08-19T12:30:12.344Z,96.20
2022-08-19T12:32:40.238Z,94.37
2022-08-19T12:35:10.092Z,95.28
2022-08-19T12:37:37.592Z,93.04
2022-08-19T12:40:06.204Z,91.98
2022-08-19T12:42:33.683Z,90.55
2022-08-19T12:45:01.146Z,87.55
2022-08-19T12:47:31.335Z,89.12
2022-08-19T12:50:02.619Z,87.92
2022-08-19T12:52:31.747Z,87.82
2022-08-19T12:54:59.338Z,91.12
2022-08-19T12:57:32.882Z,92.52
2022-08-19T13:00:01.565Z,93.65
2022-08-19T13:02:38.772Z,95.80
2022-08-19T13:05:07.712Z,95.80
2022-08-19T13:07:35.719Z,96.69
2022-08-19T13:10:03.288Z,97.67
2022-08-19T13:12:31.007Z,95.48
2022-08-19T13:14:58.422Z,95.52
2022-08-19T13:17:26.220Z,94.34
2022-08-19T13:19:55.004Z,94.73
2022-08-19T13:22:22.453Z,96.04
2022-08-19T13:24:50.229Z,96.08
2022-08-19T13:27:17.632Z,94.77
2022-08-19T13:30:08.001Z,94.80
2022-08-19T13:32:53.252Z,94.77
2022-08-19T13:35:22.146Z,93.05
2022-08-19T13:40:19.160Z,90.41
2022-08-19T13:42:48.272Z,90.81
2022-08-19T13:45:17.487Z,90.63
2022-08-19T13:47:47.191Z,87.35
2022-08-19T13:50:16.769Z,86.29
2022-08-19T13:52:45.891Z,87.88
2022-08-19T13:55:13.948Z,83.74
2022-08-19T13:57:41.334Z,85.45
2022-08-19T14:00:10.650Z,83.39
2022-08-19T14:02:38.548Z,83.94
2022-08-19T14:05:06.600Z,84.92
2022-08-19T14:07:34.076Z,85.71
2022-08-19T14:10:02.886Z,85.31
2022-08-19T14:12:30.484Z,82.45
2022-08-19T14:14:57.940Z,83.26
2022-08-19T14:17:25.918Z,82.29
2022-08-19T14:19:57.837Z,81.38
2022-08-19T14:22:25.355Z,82.14
2022-08-19T14:24:52.785Z,84.17
2022-08-19T14:27:21.532Z,82.75
2022-08-19T14:29:49.054Z,83.32
2022-08-19T14:32:16.928Z,84.64
2022-08-19T14:34:46.606Z,83.74
2022-08-19T14:37:14.919Z,84.59
2022-08-19T14:39:42.406Z,85.20
2022-08-19T14:42:11.588Z,84.65
2022-08-19T14:44:40.453Z,82.65
2022-08-19T14:47:08.630Z,82.89
2022-08-19T14:49:43.093Z,84.88
2022-08-19T14:52:13.333Z,85.67
2022-08-19T14:54:40.773Z,85.87
2022-08-19T14:57:08.226Z,86.50
2022-08-19T14:59:36.343Z,86.73
2022-08-19T15:02:33.947Z,88.10
2022-08-19T15:04:58.525Z,90.73
2022-08-19T15:07:29.142Z,93.92
2022-08-19T15:09:57.285Z,97.97
2022-08-19T15:12:24.845Z,99.91
2022-08-19T15:14:55.151Z,100.00
2022-08-19T15:17:44.993Z,100.00
2022-08-19T15:20:14.407Z,100.00
2022-08-19T15:22:43.101Z,99.67
2022-08-19T15:25:12.415Z,100.00
2022-08-19T15:27:40.662Z,98.94
2022-08-19T15:30:09.320Z,99.33
2022-08-19T15:32:38.754Z,99.73
2022-08-19T15:35:07.056Z,99.85
2022-08-19T15:37:37.273Z,100.00
2022-08-19T15:40:05.855Z,99.91
2022-08-19T15:42:33.408Z,100.00
2022-08-19T15:45:02.299Z,100.00
2022-08-19T15:47:34.454Z,100.00
2022-08-19T15:50:05.754Z,100.00
2022-08-19T15:52:33.265Z,100.00
2022-08-19T15:55:01.463Z,100.00
2022-08-19T15:57:46.435Z,100.00
2022-08-19T16:00:32.021Z,100.00
2022-08-19T16:03:17.412Z,100.00
2022-08-19T16:06:03.727Z,100.00
2022-08-19T16:08:31.471Z,100.00
2022-08-19T16:10:58.948Z,100.00
2022-08-19T16:13:26.443Z,100.00
2022-08-19T16:15:57.060Z,100.00
2022-08-19T16:18:25.337Z,100.00
2022-08-19T16:20:54.145Z,100.00
2022-08-19T16:23:21.592Z,100.00
2022-08-19T16:25:49.296Z,100.00
2022-08-19T16:28:16.762Z,100.00
2022-08-19T16:30:48.708Z,100.00
2022-08-19T16:33:22.853Z,100.00
2022-08-19T16:35:56.075Z,100.00
2022-08-19T16:38:37.625Z,100.00
2022-08-19T16:41:05.415Z,100.00
2022-08-19T16:43:33.181Z,100.00
2022-08-19T16:46:01.564Z,100.00
2022-08-19T16:48:30.167Z,100.00
2022-08-19T16:50:58.335Z,100.00
2022-08-19T16:53:28.997Z,100.00
2022-08-19T16:55:58.801Z,100.00
2022-08-19T16:58:28.071Z,100.00
2022-08-19T17:00:59.512Z,100.00
2022-08-19T17:03:36.511Z,100.00
2022-08-19T17:06:18.921Z,100.00
2022-08-19T17:08:49.046Z,100.00
2022-08-19T17:11:19.082Z,100.00
2022-08-19T17:13:48.103Z,100.00
2022-08-19T17:16:16.485Z,100.00
2022-08-19T17:18:44.044Z,100.00
2022-08-19T17:21:13.058Z,100.00
2022-08-19T17:23:42.834Z,100.00
2022-08-19T17:26:16.769Z,100.00
2022-08-19T17:28:49.326Z,100.00
2022-08-19T17:31:16.900Z,100.00
2022-08-19T17:33:48.168Z,100.00
2022-08-19T17:36:16.484Z,100.00
2022-08-19T17:38:44.097Z,100.00
2022-08-19T17:41:11.591Z,100.00
2022-08-19T17:43:43.303Z,100.00
2022-08-19T17:46:17.687Z,100.00
2022-08-19T17:48:51.907Z,100.00
2022-08-19T17:51:22.300Z,100.00
2022-08-19T17:53:51.568Z,100.00
2022-08-19T17:56:19.948Z,100.00
2022-08-19T17:58:59.654Z,100.00
2022-08-19T18:01:52.373Z,100.00
2022-08-19T18:04:19.726Z,100.00
2022-08-19T18:06:52.953Z,100.00
2022-08-19T18:09:23.796Z,100.00
2022-08-19T18:11:52.772Z,100.00
2022-08-19T18:14:20.814Z,100.00
2022-08-19T18:16:50.468Z,100.00
2022-08-19T18:19:18.743Z,100.00
2022-08-19T18:21:47.050Z,100.00
2022-08-19T18:24:15.134Z,100.00
2022-08-19T18:26:42.935Z,100.00
2022-08-19T18:29:10.802Z,100.00
2022-08-19T18:31:39.402Z,100.00
2022-08-19T18:34:10.024Z,100.00
2022-08-19T18:36:53.423Z,100.00
2022-08-19T18:39:47.462Z,100.00
2022-08-19T18:42:33.109Z,100.00
2022-08-19T18:45:18.219Z,100.00
2022-08-19T18:48:03.199Z,100.00
2022-08-19T18:50:32.845Z,100.00
2022-08-19T18:53:01.797Z,100.00
2022-08-19T18:55:29.720Z,100.00
2022-08-19T18:57:57.506Z,100.00
2022-08-19T19:00:25.298Z,100.00
2022-08-19T19:02:54.515Z,100.00
2022-08-19T19:05:23.174Z,100.00
2022-08-19T19:07:53.318Z,100.00
2022-08-19T19:10:21.266Z,100.00
2022-08-19T19:12:50.069Z,100.00
2022-08-19T19:15:18.844Z,100.00
2022-08-19T19:17:46.601Z,100.00
2022-08-19T19:20:14.100Z,100.00
2022-08-19T19:22:41.578Z,100.00
2022-08-19T19:25:11.510Z,100.00
2022-08-19T19:27:40.274Z,100.00
2022-08-19T19:30:08.715Z,100.00
2022-08-19T19:32:39.184Z,100.00
2022-08-19T19:35:07.653Z,100.00
2022-08-19T19:37:35.143Z,100.00
2022-08-19T19:40:02.857Z,100.00
2022-08-19T19:42:31.844Z,100.00
2022-08-19T19:45:02.109Z,100.00
2022-08-19T19:47:31.010Z,100.00
2022-08-19T19:50:15.473Z,100.00
2022-08-19T19:52:45.515Z,100.00
2022-08-19T19:55:15.655Z,100.00
2022-08-19T19:57:45.234Z,100.00
2022-08-19T20:00:15.260Z,100.00
2022-08-19T20:02:49.158Z,100.00
2022-08-19T20:05:19.185Z,100.00
2022-08-19T20:08:04.372Z,100.00
2022-08-19T20:10:32.632Z,100.00
2022-08-19T20:13:03.422Z,100.00
2022-08-19T20:15:32.278Z,100.00
2022-08-19T20:18:00.781Z,100.00
2022-08-19T20:20:28.636Z,100.00
2022-08-19T20:22:56.385Z,100.00
2022-08-19T20:25:24.172Z,100.00
2022-08-19T20:27:52.048Z,100.00
2022-08-19T20:30:21.961Z,100.00
2022-08-19T20:32:51.446Z,100.00
2022-08-19T20:35:20.445Z,100.00
2022-08-19T20:37:48.066Z,100.00
2022-08-19T20:40:16.880Z,100.00
2022-08-19T20:42:50.740Z,100.00
2022-08-19T20:45:32.700Z,100.00
2022-08-19T20:48:03.747Z,100.00
2022-08-19T20:50:31.417Z,100.00
2022-08-19T20:52:59.223Z,100.00
2022-08-19T20:55:28.392Z,100.00
2022-08-19T20:57:56.634Z,100.00
2022-08-19T21:00:24.383Z,100.00
2022-08-19T21:02:52.105Z,100.00
2022-08-19T21:05:21.393Z,100.00
2022-08-19T21:07:49.074Z,100.00
2022-08-19T21:10:16.666Z,100.00
2022-08-19T21:12:44.732Z,100.00
2022-08-19T21:15:12.370Z,100.00
2022-08-19T21:17:40.016Z,100.00
2022-08-19T21:20:09.590Z,100.00
2022-08-19T21:22:38.776Z,100.00
2022-08-19T21:25:07.428Z,100.00
2022-08-19T21:27:35.003Z,100.00
2022-08-19T21:30:02.409Z,100.00
2022-08-19T21:32:29.905Z,100.00
2022-08-19T21:34:57.735Z,100.00
2022-08-19T21:37:26.246Z,100.00
2022-08-19T21:39:55.335Z,100.00
2022-08-19T21:42:23.449Z,100.00
2022-08-19T21:44:51.201Z,100.00
2022-08-19T21:47:18.666Z,100.00
2022-08-19T21:49:46.075Z,100.00
2022-08-19T21:52:13.928Z,100.00
2022-08-19T21:54:42.053Z,100.00
2022-08-19T21:57:11.166Z,100.00
2022-08-19T21:59:39.717Z,100.00
2022-08-19T22:02:19.911Z,100.00
2022-08-19T22:04:49.013Z,100.00
2022-08-19T22:07:16.582Z,100.00
2022-08-19T22:09:44.697Z,100.00
2022-08-19T22:12:25.447Z,100.00
2022-08-19T22:14:53.379Z,100.00
2022-08-19T22:17:22.359Z,100.00
2022-08-19T22:19:49.868Z,100.00
2022-08-19T22:22:20.757Z,100.00
2022-08-19T22:24:48.290Z,100.00
2022-08-19T22:27:17.117Z,100.00
2022-08-19T22:29:44.689Z,100.00
2022-08-19T22:32:26.771Z,100.00
2022-08-19T22:34:56.597Z,100.00
2022-08-19T22:37:24.055Z,100.00
2022-08-19T22:39:51.622Z,100.00
2022-08-19T22:42:21.091Z,100.00
2022-08-19T22:44:48.593Z,100.00
2022-08-19T22:47:16.201Z,100.00
2022-08-19T22:49:44.642Z,100.00
2022-08-19T22:52:20.223Z,100.00
2022-08-19T22:54:48.588Z,100.00
2022-08-19T22:57:16.189Z,100.00
2022-08-19T22:59:45.046Z,100.00
2022-08-19T23:02:12.852Z,100.00
2022-08-19T23:04:40.408Z,100.00
2022-08-19T23:07:09.211Z,100.00
2022-08-19T23:09:36.726Z,100.00
2022-08-19T23:12:04.734Z,100.00
2022-08-19T23:14:32.198Z,100.00
2022-08-19T23:17:01.414Z,100.00
2022-08-19T23:19:29.701Z,100.00
2022-08-19T23:21:57.583Z,100.00
2022-08-19T23:24:25.105Z,100.00
2022-08-19T23:27:10.184Z,100.00
2022-08-19T23:29:55.135Z,100.00
2022-08-19T23:32:25.401Z,100.00
2022-08-19T23:34:52.898Z,100.00
2022-08-19T23:37:20.355Z,100.00
2022-08-19T23:39:49.089Z,100.00
2022-08-19T23:42:16.711Z,100.00
2022-08-19T23:44:51.297Z,100.00
2022-08-19T23:47:20.454Z,100.00
2022-08-19T23:49:49.597Z,100.00
2022-08-19T23:52:17.110Z,100.00
2022-08-19T23:54:44.617Z,100.00
2022-08-19T23:57:13.281Z,100.00
2022-08-19T23:59:42.403Z,100.00
